Time;durP1;ratioP1;P1;durP2;ratioP2;P2;SDS_P1;SDS_P2;PMS_P1;PMS_P2;Temp;Humidity;BMP_temperature;BMP_pressure;BME280_temperature;BME280_humidity;BME280_pressure;Samples;Min_cycle;Max_cycle;Signal;HPM_P1;HPM_P2
2023/12/27 00:01:56;;;;;;;14.85;6.10;;;;;;;;;;5044648;28;20068;-91
2023/12/27 00:04:24;;;;;;;12.45;4.85;;;;;;;;;;5042200;28;20107;-90
2023/12/27 00:06:53;;;;;;;10.38;4.18;;;;;;;;;;5057590;28;20103;-90
2023/12/27 00:09:20;;;;;;;10.10;3.88;;;;;;;;;;5059495;28;20045;-90
2023/12/27 00:11:48;;;;;;;12.93;4.60;;;;;;;;;;5044467;28;20075;-91
2023/12/27 00:14:15;;;;;;;13.57;5.18;;;;;;;;;;5044256;28;20056;-91
2023/12/27 00:16:42;;;;;;;15.95;5.38;;;;;;;;;;5044552;28;20049;-89
2023/12/27 00:19:09;;;;;;;9.75;4.43;;;;;;;;;;5044082;28;20061;-90
2023/12/27 00:21:37;;;;;;;8.13;3.58;;;;;;;;;;5057635;28;20053;-90
2023/12/27 00:24:04;;;;;;;8.27;3.85;;;;;;;;;;5057033;28;20045;-91
2023/12/27 00:26:32;;;;;;;7.32;3.90;;;;;;;;;;5041192;28;20071;-90
2023/12/27 00:28:59;;;;;;;9.02;4.20;;;;;;;;;;5057432;28;20045;-90
2023/12/27 00:31:26;;;;;;;10.63;4.40;;;;;;;;;;5059857;28;20045;-91
2023/12/27 00:33:53;;;;;;;9.43;4.30;;;;;;;;;;5038206;28;20045;-90
2023/12/27 00:36:21;;;;;;;10.45;4.45;;;;;;;;;;5059007;28;20486;-91
2023/12/27 00:38:48;;;;;;;10.95;4.95;;;;;;;;;;5044692;28;20048;-91
2023/12/27 00:41:16;;;;;;;16.75;5.45;;;;;;;;;;5043158;28;20048;-91
2023/12/27 00:43:43;;;;;;;10.10;4.95;;;;;;;;;;5040267;28;20482;-91
2023/12/27 00:46:10;;;;;;;14.07;5.55;;;;;;;;;;5056747;28;20053;-91
2023/12/27 00:48:37;;;;;;;8.43;4.20;;;;;;;;;;5020697;28;20095;-90
2023/12/27 00:51:05;;;;;;;9.40;4.03;;;;;;;;;;5043901;28;20052;-91
2023/12/27 00:53:32;;;;;;;12.25;4.55;;;;;;;;;;5026748;28;20046;-91
2023/12/27 00:56:01;;;;;;;10.20;4.30;;;;;;;;;;5061112;28;20050;-91
2023/12/27 00:58:29;;;;;;;10.90;6.25;;;;;;;;;;5063950;28;20510;-91
2023/12/27 01:00:56;;;;;;;18.15;9.45;;;;;;;;;;5048129;28;20049;-91
2023/12/27 01:03:23;;;;;;;15.45;5.30;;;;;;;;;;5048597;28;20049;-90
2023/12/27 01:05:50;;;;;;;9.00;4.97;;;;;;;;;;5063667;28;20032;-91
2023/12/27 01:08:17;;;;;;;11.13;4.43;;;;;;;;;;5054623;28;20053;-91
2023/12/27 01:10:45;;;;;;;13.20;5.95;;;;;;;;;;5061043;28;20572;-90
2023/12/27 01:13:12;;;;;;;11.27;5.07;;;;;;;;;;5043639;28;20057;-90
2023/12/27 01:15:39;;;;;;;9.57;5.15;;;;;;;;;;5032979;28;20559;-91
2023/12/27 01:18:06;;;;;;;14.05;4.55;;;;;;;;;;5047724;28;20465;-91
2023/12/27 01:20:34;;;;;;;12.30;4.40;;;;;;;;;;5027939;28;20123;-90
2023/12/27 01:23:02;;;;;;;9.07;4.40;;;;;;;;;;5060407;28;20128;-90
2023/12/27 01:25:29;;;;;;;9.00;3.70;;;;;;;;;;5063273;28;20114;-90
2023/12/27 01:27:56;;;;;;;15.00;4.30;;;;;;;;;;5047560;28;20555;-90
2023/12/27 01:30:24;;;;;;;12.15;5.00;;;;;;;;;;5039298;28;20459;-90
2023/12/27 01:32:51;;;;;;;10.23;3.92;;;;;;;;;;5047510;28;20057;-91
2023/12/27 01:35:19;;;;;;;12.48;4.30;;;;;;;;;;5046207;28;20048;-91
2023/12/27 01:37:46;;;;;;;12.13;4.63;;;;;;;;;;5060136;28;20383;-91
2023/12/27 01:40:15;;;;;;;9.85;4.13;;;;;;;;;;5044535;28;20099;-91
2023/12/27 01:42:42;;;;;;;15.77;4.55;;;;;;;;;;5034757;28;20077;-91
2023/12/27 01:45:09;;;;;;;8.50;3.92;;;;;;;;;;5060244;28;20075;-91
2023/12/27 01:47:37;;;;;;;10.73;3.80;;;;;;;;;;5035003;28;20152;-91
2023/12/27 01:50:09;;;;;;;11.95;4.15;;;;;;;;;;5036299;28;20558;-91
2023/12/27 01:52:40;;;;;;;9.85;3.72;;;;;;;;;;5043421;28;20140;-91
2023/12/27 01:55:09;;;;;;;13.15;4.13;;;;;;;;;;5060279;28;20386;-91
2023/12/27 01:57:40;;;;;;;12.85;4.13;;;;;;;;;;5052408;28;20049;-91
2023/12/27 02:00:08;;;;;;;5.78;3.28;;;;;;;;;;5060131;28;20111;-91
2023/12/27 02:02:38;;;;;;;8.52;3.28;;;;;;;;;;5051897;28;20057;-90
2023/12/27 02:05:06;;;;;;;8.27;3.95;;;;;;;;;;5035475;28;20127;-91
2023/12/27 02:07:33;;;;;;;11.13;3.90;;;;;;;;;;5042963;28;20281;-90
2023/12/27 02:10:01;;;;;;;8.40;3.97;;;;;;;;;;5043398;28;20052;-90
2023/12/27 02:12:29;;;;;;;6.35;3.60;;;;;;;;;;5045875;28;20072;-91
2023/12/27 02:14:57;;;;;;;11.07;4.00;;;;;;;;;;5046512;28;20132;-91
2023/12/27 02:17:26;;;;;;;9.32;3.63;;;;;;;;;;5044488;28;20079;-91
2023/12/27 02:19:53;;;;;;;7.68;3.60;;;;;;;;;;5060834;28;20235;-92
2023/12/27 02:22:22;;;;;;;7.30;3.75;;;;;;;;;;5081252;28;20117;-91
2023/12/27 02:24:50;;;;;;;10.90;3.88;;;;;;;;;;5049007;28;20049;-91
2023/12/27 02:27:18;;;;;;;11.15;4.28;;;;;;;;;;5045202;28;20048;-91
2023/12/27 02:29:45;;;;;;;7.25;3.40;;;;;;;;;;5030140;28;20045;-91
2023/12/27 02:32:12;;;;;;;10.48;3.47;;;;;;;;;;5031751;28;20056;-91
2023/12/27 02:34:40;;;;;;;11.38;3.92;;;;;;;;;;5059404;28;20073;-90
2023/12/27 02:37:07;;;;;;;13.05;4.10;;;;;;;;;;5043045;28;20054;-90
2023/12/27 02:39:34;;;;;;;8.63;4.32;;;;;;;;;;5035103;28;20049;-90
2023/12/27 02:42:02;;;;;;;7.32;3.85;;;;;;;;;;5059600;28;20450;-91
2023/12/27 02:44:29;;;;;;;8.88;3.88;;;;;;;;;;5061948;28;20144;-92
2023/12/27 02:46:56;;;;;;;8.35;4.05;;;;;;;;;;5032845;28;20461;-91
2023/12/27 02:49:24;;;;;;;9.77;3.70;;;;;;;;;;5041282;28;20539;-90
2023/12/27 02:51:51;;;;;;;5.25;3.60;;;;;;;;;;5059196;28;20053;-91
2023/12/27 02:54:18;;;;;;;7.03;4.00;;;;;;;;;;5043610;28;20053;-91
2023/12/27 02:56:45;;;;;;;7.63;3.50;;;;;;;;;;5046158;28;20073;-91
2023/12/27 02:59:13;;;;;;;9.85;3.83;;;;;;;;;;5045089;28;20559;-92
2023/12/27 03:01:40;;;;;;;10.48;3.55;;;;;;;;;;5059351;28;20045;-91
2023/12/27 03:04:07;;;;;;;9.95;3.63;;;;;;;;;;5058785;28;20080;-91
2023/12/27 03:06:34;;;;;;;9.77;3.83;;;;;;;;;;5050716;28;20041;-91
2023/12/27 03:09:02;;;;;;;10.40;3.38;;;;;;;;;;5035082;28;20057;-92
2023/12/27 03:11:31;;;;;;;7.78;3.50;;;;;;;;;;5041503;28;20076;-90
2023/12/27 03:13:58;;;;;;;11.93;4.10;;;;;;;;;;5058370;28;20057;-91
2023/12/27 03:16:27;;;;;;;11.32;3.72;;;;;;;;;;5060155;28;20049;-91
2023/12/27 03:18:54;;;;;;;9.98;3.75;;;;;;;;;;5045434;28;20045;-91
2023/12/27 03:21:22;;;;;;;8.23;3.70;;;;;;;;;;5043886;28;20048;-91
2023/12/27 03:23:49;;;;;;;8.48;3.90;;;;;;;;;;5058359;28;20092;-91
2023/12/27 03:26:16;;;;;;;7.88;3.25;;;;;;;;;;5059434;28;20099;-90
2023/12/27 03:28:43;;;;;;;11.25;3.40;;;;;;;;;;5045508;28;20103;-90
2023/12/27 03:31:11;;;;;;;7.57;3.22;;;;;;;;;;5045066;28;20057;-90
2023/12/27 03:33:38;;;;;;;10.13;3.38;;;;;;;;;;5041915;28;20099;-90
2023/12/27 03:36:06;;;;;;;4.80;3.53;;;;;;;;;;5065857;28;20093;-91
2023/12/27 03:38:33;;;;;;;9.05;3.90;;;;;;;;;;5076725;28;20551;-92
2023/12/27 03:41:01;;;;;;;13.00;3.78;;;;;;;;;;5046070;28;20052;-90
2023/12/27 03:43:28;;;;;;;4.07;3.20;;;;;;;;;;5042545;28;20485;-90
2023/12/27 03:45:55;;;;;;;12.50;3.95;;;;;;;;;;5058200;28;20054;-91
2023/12/27 03:48:23;;;;;;;7.78;3.60;;;;;;;;;;5059728;28;20092;-91
2023/12/27 03:50:50;;;;;;;10.63;3.65;;;;;;;;;;5045269;28;20055;-92
2023/12/27 03:53:17;;;;;;;13.05;4.50;;;;;;;;;;5043692;28;20083;-91
2023/12/27 03:55:44;;;;;;;11.55;4.57;;;;;;;;;;5057911;28;20049;-90
2023/12/27 03:58:12;;;;;;;10.45;4.20;;;;;;;;;;5049338;28;20104;-91
2023/12/27 04:00:39;;;;;;;12.95;3.95;;;;;;;;;;5033816;28;20079;-91
2023/12/27 04:03:06;;;;;;;7.78;3.97;;;;;;;;;;5040990;28;20073;-91
2023/12/27 04:05:34;;;;;;;7.43;3.70;;;;;;;;;;5061420;28;20060;-91
2023/12/27 04:08:01;;;;;;;4.50;3.10;;;;;;;;;;5044298;28;20099;-90
2023/12/27 04:10:31;;;;;;;6.32;4.20;;;;;;;;;;5042054;28;20477;-92
2023/12/27 04:12:59;;;;;;;7.40;4.03;;;;;;;;;;5064394;28;20056;-92
2023/12/27 04:15:26;;;;;;;11.15;3.40;;;;;;;;;;5042238;28;20045;-91
2023/12/27 04:17:53;;;;;;;7.38;3.85;;;;;;;;;;5057784;28;20057;-91
2023/12/27 04:20:21;;;;;;;9.93;3.88;;;;;;;;;;5059430;28;20079;-90
2023/12/27 04:22:48;;;;;;;11.30;4.05;;;;;;;;;;5038959;28;20050;-93
2023/12/27 04:25:16;;;;;;;9.43;3.72;;;;;;;;;;5041352;28;20099;-91
2023/12/27 04:27:43;;;;;;;6.60;3.50;;;;;;;;;;5057706;28;20053;-91
2023/12/27 04:30:10;;;;;;;8.20;3.33;;;;;;;;;;5057477;28;20551;-92
2023/12/27 04:32:38;;;;;;;8.30;4.10;;;;;;;;;;5028976;28;20068;-91
2023/12/27 04:35:05;;;;;;;13.80;3.40;;;;;;;;;;5044009;28;20131;-92
2023/12/27 04:37:33;;;;;;;9.00;4.10;;;;;;;;;;5041110;28;20053;-91
2023/12/27 04:40:00;;;;;;;10.02;4.20;;;;;;;;;;5057456;28;20405;-92
2023/12/27 04:42:27;;;;;;;11.45;4.15;;;;;;;;;;5059647;28;20049;-91
2023/12/27 04:44:54;;;;;;;11.65;3.55;;;;;;;;;;5044092;28;20057;-91
2023/12/27 04:47:22;;;;;;;7.85;3.45;;;;;;;;;;5042107;28;20546;-90
2023/12/27 04:49:49;;;;;;;4.03;3.13;;;;;;;;;;5041205;28;20057;-91
2023/12/27 04:52:17;;;;;;;10.02;3.53;;;;;;;;;;5055278;28;20044;-91
2023/12/27 04:54:44;;;;;;;6.88;2.97;;;;;;;;;;5063579;28;20065;-91
2023/12/27 04:57:11;;;;;;;5.95;4.03;;;;;;;;;;5057797;28;20050;-92
2023/12/27 04:59:39;;;;;;;7.68;3.20;;;;;;;;;;5044033;28;20137;-92
2023/12/27 05:02:07;;;;;;;6.97;3.90;;;;;;;;;;5043604;28;20059;-91
2023/12/27 05:04:34;;;;;;;7.35;4.22;;;;;;;;;;5040498;28;20069;-91
2023/12/27 05:07:01;;;;;;;5.60;3.20;;;;;;;;;;5056825;28;20053;-92
2023/12/27 05:09:28;;;;;;;15.30;8.45;;;;;;;;;;5043253;28;20068;-91
2023/12/27 05:11:56;;;;;;;27.27;12.30;;;;;;;;;;5043963;28;20112;-91
2023/12/27 05:14:23;;;;;;;31.67;13.43;;;;;;;;;;5041836;28;20500;-91
2023/12/27 05:16:54;;;;;;;28.92;16.15;;;;;;;;;;5040163;28;20486;-92
2023/12/27 05:19:22;;;;;;;39.33;21.25;;;;;;;;;;5041754;28;20057;-91
2023/12/27 05:21:49;;;;;;;24.65;13.63;;;;;;;;;;5043892;28;20084;-92
2023/12/27 05:24:16;;;;;;;23.05;11.23;;;;;;;;;;5042383;28;20115;-91
2023/12/27 05:26:44;;;;;;;13.40;8.07;;;;;;;;;;5057144;28;20081;-91
2023/12/27 05:29:11;;;;;;;13.95;8.43;;;;;;;;;;5056962;28;20061;-91
2023/12/27 05:31:38;;;;;;;23.15;10.57;;;;;;;;;;5043851;28;20053;-91
2023/12/27 05:34:06;;;;;;;16.58;9.13;;;;;;;;;;5043619;28;20504;-91
2023/12/27 05:36:34;;;;;;;16.95;8.65;;;;;;;;;;5040215;28;20053;-91
2023/12/27 05:39:03;;;;;;;21.38;8.85;;;;;;;;;;5050917;28;20057;-92
2023/12/27 05:41:30;;;;;;;18.05;8.45;;;;;;;;;;5035275;28;20048;-92
2023/12/27 05:43:58;;;;;;;17.10;8.93;;;;;;;;;;5060097;28;20049;-91
2023/12/27 05:46:26;;;;;;;18.05;9.10;;;;;;;;;;5058153;28;20059;-92
2023/12/27 05:48:53;;;;;;;17.73;9.07;;;;;;;;;;5035551;28;20485;-91
2023/12/27 05:51:20;;;;;;;23.83;12.60;;;;;;;;;;5045741;28;20049;-92
2023/12/27 05:53:47;;;;;;;20.67;9.35;;;;;;;;;;5060009;28;20395;-91
2023/12/27 05:56:14;;;;;;;29.77;16.38;;;;;;;;;;5060644;28;20108;-92
2023/12/27 05:58:42;;;;;;;33.38;16.92;;;;;;;;;;5046942;28;20049;-91
2023/12/27 06:01:09;;;;;;;34.70;16.95;;;;;;;;;;5047019;28;20083;-91
2023/12/27 06:03:36;;;;;;;31.75;16.92;;;;;;;;;;5048515;28;20137;-91
2023/12/27 06:06:04;;;;;;;27.55;13.65;;;;;;;;;;5017960;28;20085;-92
2023/12/27 06:08:31;;;;;;;24.55;11.93;;;;;;;;;;5064863;28;20056;-92
2023/12/27 06:10:59;;;;;;;23.75;10.75;;;;;;;;;;5048262;28;20057;-92
2023/12/27 06:13:26;;;;;;;18.90;8.68;;;;;;;;;;5044493;28;20049;-92
2023/12/27 06:15:53;;;;;;;13.52;8.48;;;;;;;;;;5060172;28;20045;-91
2023/12/27 06:18:21;;;;;;;20.85;8.45;;;;;;;;;;5061249;28;20065;-92
2023/12/27 06:20:49;;;;;;;13.10;6.63;;;;;;;;;;5046940;28;20045;-92
2023/12/27 06:23:16;;;;;;;16.08;7.20;;;;;;;;;;5044827;28;20554;-91
2023/12/27 06:25:43;;;;;;;15.85;6.47;;;;;;;;;;5019861;28;20081;-92
2023/12/27 06:28:10;;;;;;;12.43;8.02;;;;;;;;;;5059372;28;20049;-92
2023/12/27 06:30:37;;;;;;;16.63;6.70;;;;;;;;;;5042755;28;20049;-91
2023/12/27 06:33:06;;;;;;;14.25;6.53;;;;;;;;;;5042815;28;20057;-92
2023/12/27 06:35:34;;;;;;;10.98;6.22;;;;;;;;;;5046103;28;20056;-92
2023/12/27 06:38:01;;;;;;;13.93;6.53;;;;;;;;;;5046093;28;20122;-92
2023/12/27 06:40:28;;;;;;;24.05;9.32;;;;;;;;;;5043698;28;20525;-92
2023/12/27 06:42:55;;;;;;;20.92;8.45;;;;;;;;;;5059157;28;20053;-92
2023/12/27 06:45:22;;;;;;;14.30;8.23;;;;;;;;;;5059394;28;20045;-92
2023/12/27 06:47:50;;;;;;;20.08;8.77;;;;;;;;;;5059299;28;20504;-92
2023/12/27 06:50:17;;;;;;;16.27;8.65;;;;;;;;;;5057599;28;20052;-93
2023/12/27 06:52:44;;;;;;;21.42;9.05;;;;;;;;;;5046156;28;20049;-91
2023/12/27 06:55:11;;;;;;;16.67;7.20;;;;;;;;;;5045758;28;20123;-92
2023/12/27 06:57:39;;;;;;;13.05;7.57;;;;;;;;;;5059441;28;20077;-92
2023/12/27 07:00:07;;;;;;;13.30;7.20;;;;;;;;;;5059533;28;20407;-92
2023/12/27 07:02:37;;;;;;;21.40;8.10;;;;;;;;;;5051400;28;20073;-91
2023/12/27 07:05:05;;;;;;;17.92;8.43;;;;;;;;;;5058898;28;20053;-92
2023/12/27 07:07:32;;;;;;;20.70;7.78;;;;;;;;;;5062280;28;20140;-92
2023/12/27 07:09:59;;;;;;;16.75;8.43;;;;;;;;;;5045757;28;20563;-92
2023/12/27 07:12:28;;;;;;;12.88;7.22;;;;;;;;;;5033055;28;20069;-92
2023/12/27 07:14:55;;;;;;;14.85;7.47;;;;;;;;;;5036659;28;20560;-92
2023/12/27 07:17:23;;;;;;;14.10;6.70;;;;;;;;;;5044019;28;20049;-92
2023/12/27 07:19:50;;;;;;;13.55;6.50;;;;;;;;;;5047169;28;20044;-90
2023/12/27 07:22:18;;;;;;;11.77;6.18;;;;;;;;;;5055430;28;20067;-93
2023/12/27 07:24:45;;;;;;;8.93;6.22;;;;;;;;;;5068507;28;20472;-91
2023/12/27 07:27:13;;;;;;;14.13;5.97;;;;;;;;;;5039936;28;20156;-91
2023/12/27 07:29:40;;;;;;;11.82;7.30;;;;;;;;;;5045469;28;20053;-91
2023/12/27 07:32:08;;;;;;;15.32;7.25;;;;;;;;;;5045475;28;20053;-91
2023/12/27 07:34:35;;;;;;;13.77;8.38;;;;;;;;;;5033636;28;20498;-92
2023/12/27 07:37:03;;;;;;;16.23;8.25;;;;;;;;;;5058030;28;20073;-93
2023/12/27 07:39:32;;;;;;;12.40;8.25;;;;;;;;;;5058152;28;20050;-92
2023/12/27 07:42:00;;;;;;;19.50;9.15;;;;;;;;;;5056781;28;20053;-91
2023/12/27 07:44:28;;;;;;;71.80;35.85;;;;;;;;;;5042585;28;20102;-92
2023/12/27 07:46:55;;;;;;;95.75;47.00;;;;;;;;;;5058204;28;20520;-91
2023/12/27 07:49:22;;;;;;;60.45;31.75;;;;;;;;;;5059357;28;20045;-92
2023/12/27 07:51:50;;;;;;;37.13;15.40;;;;;;;;;;5044872;28;20489;-91
2023/12/27 07:54:17;;;;;;;48.90;21.67;;;;;;;;;;5044715;28;20103;-91
2023/12/27 07:56:44;;;;;;;89.07;44.08;;;;;;;;;;5045224;28;20075;-92
2023/12/27 07:59:11;;;;;;;55.60;26.23;;;;;;;;;;5036695;28;20053;-91
2023/12/27 08:01:39;;;;;;;36.22;20.63;;;;;;;;;;5036988;28;20045;-91
2023/12/27 08:04:06;;;;;;;35.97;19.70;;;;;;;;;;5020512;28;20053;-91
2023/12/27 08:06:33;;;;;;;46.60;21.02;;;;;;;;;;5061312;28;20122;-92
2023/12/27 08:09:04;;;;;;;37.30;20.40;;;;;;;;;;5044387;28;20048;-92
2023/12/27 08:11:31;;;;;;;47.75;26.17;;;;;;;;;;5041416;28;20482;-92
2023/12/27 08:13:58;;;;;;;48.83;25.20;;;;;;;;;;5057658;28;20111;-92
2023/12/27 08:16:26;;;;;;;43.80;25.88;;;;;;;;;;5059664;28;20049;-91
2023/12/27 08:18:53;;;;;;;74.40;37.47;;;;;;;;;;5044103;28;20056;-92
2023/12/27 08:21:21;;;;;;;41.05;24.65;;;;;;;;;;5043161;28;20068;-92
2023/12/27 08:23:49;;;;;;;24.95;14.20;;;;;;;;;;5052096;28;20061;-91
2023/12/27 08:26:16;;;;;;;20.38;10.95;;;;;;;;;;5038663;28;20049;-92
2023/12/27 08:28:43;;;;;;;22.77;10.55;;;;;;;;;;5057346;28;20395;-92
2023/12/27 08:31:10;;;;;;;19.50;8.95;;;;;;;;;;5041124;28;20103;-91
2023/12/27 08:33:38;;;;;;;19.02;9.57;;;;;;;;;;5044385;28;20060;-92
2023/12/27 08:36:06;;;;;;;18.02;9.13;;;;;;;;;;5047206;28;20053;-92
2023/12/27 08:38:33;;;;;;;16.92;8.23;;;;;;;;;;5056949;28;20045;-92
2023/12/27 08:41:02;;;;;;;14.63;8.25;;;;;;;;;;5058051;28;20057;-92
2023/12/27 08:43:30;;;;;;;22.23;9.50;;;;;;;;;;5032081;28;20063;-92
2023/12/27 08:45:57;;;;;;;22.55;14.13;;;;;;;;;;5057234;28;20103;-92
2023/12/27 08:48:25;;;;;;;98.03;63.03;;;;;;;;;;5059329;28;20049;-91
2023/12/27 08:50:52;;;;;;;44.60;28.75;;;;;;;;;;5032899;28;20046;-91
2023/12/27 08:53:20;;;;;;;72.72;54.70;;;;;;;;;;5022338;28;20406;-90
2023/12/27 08:55:47;;;;;;;31.20;17.77;;;;;;;;;;5040854;28;20387;-92
2023/12/27 08:58:14;;;;;;;30.90;18.92;;;;;;;;;;5057825;28;20501;-91
2023/12/27 09:00:41;;;;;;;24.38;13.43;;;;;;;;;;5044243;28;20061;-91
2023/12/27 09:03:09;;;;;;;31.35;19.83;;;;;;;;;;5043843;28;20068;-91
2023/12/27 09:05:36;;;;;;;41.35;22.60;;;;;;;;;;5049410;28;20494;-91
2023/12/27 09:08:04;;;;;;;24.83;16.35;;;;;;;;;;5057653;28;20060;-91
2023/12/27 09:10:31;;;;;;;29.15;16.45;;;;;;;;;;5044060;28;20136;-91
2023/12/27 09:12:58;;;;;;;23.52;13.60;;;;;;;;;;5043990;28;20049;-91
2023/12/27 09:15:25;;;;;;;20.50;11.68;;;;;;;;;;5045547;28;20261;-91
2023/12/27 09:17:53;;;;;;;22.10;13.90;;;;;;;;;;5061226;28;20061;-91
2023/12/27 09:20:21;;;;;;;21.17;12.80;;;;;;;;;;5062473;28;20559;-91
2023/12/27 09:22:48;;;;;;;23.30;12.50;;;;;;;;;;5047855;28;20063;-91
2023/12/27 09:25:16;;;;;;;17.08;9.18;;;;;;;;;;5047102;28;20051;-90
2023/12/27 09:27:44;;;;;;;12.38;8.57;;;;;;;;;;5044676;28;20061;-91
2023/12/27 09:30:12;;;;;;;23.08;13.13;;;;;;;;;;5061413;28;20134;-90
2023/12/27 09:32:42;;;;;;;17.10;8.35;;;;;;;;;;5047868;28;20135;-91
2023/12/27 09:35:10;;;;;;;26.30;12.75;;;;;;;;;;5047568;28;20057;-90
2023/12/27 09:37:37;;;;;;;92.20;50.17;;;;;;;;;;5060780;28;20084;-90
2023/12/27 09:40:05;;;;;;;43.13;27.55;;;;;;;;;;5043916;28;20065;-90
2023/12/27 09:42:33;;;;;;;15.70;7.45;;;;;;;;;;5047517;28;20065;-90
2023/12/27 09:45:01;;;;;;;23.80;12.13;;;;;;;;;;5032314;28;20148;-90
2023/12/27 09:47:29;;;;;;;24.00;13.13;;;;;;;;;;5046656;28;20057;-91
2023/12/27 09:49:57;;;;;;;21.95;10.07;;;;;;;;;;5047157;28;20052;-91
2023/12/27 09:52:24;;;;;;;10.65;6.82;;;;;;;;;;5061752;28;20053;-90
2023/12/27 09:54:52;;;;;;;14.05;8.25;;;;;;;;;;5060557;28;20482;-90
2023/12/27 09:57:19;;;;;;;34.10;18.38;;;;;;;;;;5061519;28;20045;-90
2023/12/27 09:59:47;;;;;;;15.75;6.95;;;;;;;;;;5034331;28;20057;-91
2023/12/27 10:02:17;;;;;;;9.85;6.10;;;;;;;;;;5060571;28;20057;-91
2023/12/27 10:04:48;;;;;;;16.50;9.55;;;;;;;;;;5047069;28;20052;-91
2023/12/27 10:07:17;;;;;;;14.20;7.40;;;;;;;;;;5038670;28;20136;-90
2023/12/27 10:09:46;;;;;;;11.23;5.80;;;;;;;;;;5037060;28;20080;-91
2023/12/27 10:12:15;;;;;;;26.83;13.27;;;;;;;;;;5040817;28;20407;-91
2023/12/27 10:14:43;;;;;;;9.25;5.63;;;;;;;;;;5059816;28;20075;-92
2023/12/27 10:17:10;;;;;;;10.05;4.88;;;;;;;;;;5059986;28;20104;-90
2023/12/27 10:19:41;;;;;;;19.90;10.40;;;;;;;;;;5046505;28;20057;-91
2023/12/27 10:22:09;;;;;;;35.20;15.48;;;;;;;;;;5046541;28;20055;-90
2023/12/27 10:24:37;;;;;;;12.10;6.75;;;;;;;;;;5051157;28;20053;-91
2023/12/27 10:27:05;;;;;;;19.60;5.75;;;;;;;;;;5043210;28;20049;-91
2023/12/27 10:29:33;;;;;;;10.77;4.68;;;;;;;;;;5062546;28;20163;-91
2023/12/27 10:32:01;;;;;;;11.30;5.20;;;;;;;;;;5032778;28;20410;-90
2023/12/27 10:34:29;;;;;;;13.90;8.38;;;;;;;;;;5042324;28;20472;-91
2023/12/27 10:36:57;;;;;;;10.77;4.72;;;;;;;;;;5059452;28;20053;-90
2023/12/27 10:39:24;;;;;;;20.63;10.38;;;;;;;;;;5061534;28;20383;-90
2023/12/27 10:41:55;;;;;;;14.48;6.75;;;;;;;;;;5046519;28;20045;-91
2023/12/27 10:44:22;;;;;;;6.43;3.40;;;;;;;;;;5044374;28;20448;-90
2023/12/27 10:46:51;;;;;;;6.55;2.85;;;;;;;;;;5059460;28;20490;-91
2023/12/27 10:49:20;;;;;;;9.90;3.25;;;;;;;;;;5060381;28;20050;-90
2023/12/27 10:51:48;;;;;;;5.95;3.20;;;;;;;;;;5046523;28;20076;-90
2023/12/27 10:54:17;;;;;;;4.95;3.30;;;;;;;;;;5045265;28;20076;-90
2023/12/27 10:56:46;;;;;;;9.25;3.45;;;;;;;;;;5064196;28;20049;-90
2023/12/27 10:59:13;;;;;;;6.97;3.25;;;;;;;;;;5045445;28;20065;-89
2023/12/27 11:01:43;;;;;;;5.85;2.88;;;;;;;;;;5059674;28;20042;-91
2023/12/27 11:04:11;;;;;;;6.90;2.90;;;;;;;;;;5059133;28;20064;-89
2023/12/27 11:06:39;;;;;;;5.50;2.70;;;;;;;;;;5042575;28;20044;-90
2023/12/27 11:09:07;;;;;;;7.57;2.78;;;;;;;;;;5053155;28;20048;-90
2023/12/27 11:11:37;;;;;;;3.78;2.40;;;;;;;;;;5026176;28;20056;-89
2023/12/27 11:14:05;;;;;;;3.53;2.38;;;;;;;;;;5042497;28;20111;-90
2023/12/27 11:16:34;;;;;;;3.10;2.13;;;;;;;;;;5062130;28;20079;-91
2023/12/27 11:19:06;;;;;;;3.97;1.92;;;;;;;;;;5045186;28;20080;-91
2023/12/27 11:21:35;;;;;;;5.82;1.98;;;;;;;;;;5042760;28;20544;-90
2023/12/27 11:24:04;;;;;;;6.40;2.10;;;;;;;;;;5058690;28;20061;-90
2023/12/27 11:26:34;;;;;;;3.70;1.67;;;;;;;;;;5061735;28;20045;-90
2023/12/27 11:29:01;;;;;;;5.65;1.67;;;;;;;;;;5045582;28;20049;-90
2023/12/27 11:31:29;;;;;;;3.35;1.50;;;;;;;;;;5045876;28;20087;-89
2023/12/27 11:33:57;;;;;;;1.75;1.65;;;;;;;;;;5045413;28;20045;-90
2023/12/27 11:36:25;;;;;;;3.30;1.38;;;;;;;;;;5043085;28;20413;-91
2023/12/27 11:38:53;;;;;;;3.42;1.50;;;;;;;;;;5042051;28;20052;-91
2023/12/27 11:41:21;;;;;;;4.93;2.15;;;;;;;;;;5042392;28;20045;-91
2023/12/27 11:43:53;;;;;;;3.42;1.98;;;;;;;;;;5058664;28;20072;-90
2023/12/27 11:46:27;;;;;;;4.13;1.52;;;;;;;;;;5043337;28;20063;-91
2023/12/27 11:48:55;;;;;;;1.50;1.27;;;;;;;;;;5044926;28;20052;-91
2023/12/27 11:51:29;;;;;;;2.53;1.17;;;;;;;;;;5043328;28;20053;-90
2023/12/27 11:53:57;;;;;;;2.60;1.38;;;;;;;;;;5057821;28;20107;-90
2023/12/27 11:56:27;;;;;;;1.63;1.30;;;;;;;;;;5060252;28;20489;-91
2023/12/27 11:58:54;;;;;;;2.22;1.27;;;;;;;;;;5045072;28;20045;-90
2023/12/27 12:01:24;;;;;;;2.60;1.10;;;;;;;;;;5044205;28;20472;-91
2023/12/27 12:04:15;;;;;;;1.55;1.35;;;;;;;;;;5041309;28;20099;-90
2023/12/27 12:06:43;;;;;;;1.15;1.05;;;;;;;;;;5050815;28;20045;-90
2023/12/27 12:09:11;;;;;;;2.33;1.00;;;;;;;;;;5041244;28;20053;-90
2023/12/27 12:11:38;;;;;;;2.15;1.30;;;;;;;;;;5044835;28;20493;-90
2023/12/27 12:14:05;;;;;;;2.13;1.80;;;;;;;;;;5044359;28;20064;-92
2023/12/27 12:16:33;;;;;;;2.10;1.50;;;;;;;;;;5041340;28;20050;-91
2023/12/27 12:19:01;;;;;;;3.90;1.58;;;;;;;;;;5057997;28;20058;-92
2023/12/27 12:21:29;;;;;;;1.50;1.40;;;;;;;;;;5073270;28;20037;-91
2023/12/27 12:23:57;;;;;;;1.80;1.70;;;;;;;;;;5051653;28;20124;-91
2023/12/27 12:26:24;;;;;;;4.00;1.98;;;;;;;;;;5042597;28;20049;-91
2023/12/27 12:28:55;;;;;;;3.45;1.95;;;;;;;;;;5040753;28;20555;-91
2023/12/27 12:31:22;;;;;;;3.72;1.63;;;;;;;;;;5042658;28;20076;-91
2023/12/27 12:33:50;;;;;;;2.10;1.98;;;;;;;;;;5044257;28;20053;-89
2023/12/27 12:36:18;;;;;;;3.28;1.67;;;;;;;;;;5043239;28;20052;-92
2023/12/27 12:38:45;;;;;;;2.70;1.73;;;;;;;;;;5057167;28;20049;-92
2023/12/27 12:41:13;;;;;;;1.42;1.33;;;;;;;;;;5057330;28;20057;-92
2023/12/27 12:43:40;;;;;;;2.97;1.88;;;;;;;;;;5044167;28;20045;-92
2023/12/27 12:46:08;;;;;;;2.15;1.45;;;;;;;;;;5044739;28;20053;-91
2023/12/27 12:48:36;;;;;;;4.07;2.45;;;;;;;;;;5048175;28;20046;-91
2023/12/27 12:51:11;;;;;;;2.15;2.05;;;;;;;;;;5057282;28;20666;-91
2023/12/27 12:53:39;;;;;;;2.90;2.42;;;;;;;;;;5036636;28;20570;-92
2023/12/27 12:56:07;;;;;;;5.00;2.40;;;;;;;;;;5044268;28;20060;-92
2023/12/27 12:58:35;;;;;;;6.85;4.45;;;;;;;;;;5040815;28;20068;-91
2023/12/27 13:01:03;;;;;;;5.07;3.03;;;;;;;;;;5057542;28;20053;-91
2023/12/27 13:03:37;;;;;;;3.88;1.95;;;;;;;;;;5048416;28;20053;-93
2023/12/27 13:06:08;;;;;;;1.77;1.67;;;;;;;;;;5056998;28;20136;-91
2023/12/27 13:08:36;;;;;;;1.85;1.75;;;;;;;;;;5049222;28;20053;-91
2023/12/27 13:11:03;;;;;;;2.38;1.77;;;;;;;;;;5041284;28;20456;-91
2023/12/27 13:13:30;;;;;;;2.80;1.75;;;;;;;;;;5060168;28;20107;-92
2023/12/27 13:15:58;;;;;;;2.90;1.70;;;;;;;;;;5044327;28;20060;-91
2023/12/27 13:18:25;;;;;;;6.10;1.70;;;;;;;;;;5027302;28;20104;-91
2023/12/27 13:20:53;;;;;;;2.25;1.58;;;;;;;;;;5043879;28;20045;-92
2023/12/27 13:23:20;;;;;;;3.88;1.40;;;;;;;;;;5042518;28;20053;-91
2023/12/27 13:25:47;;;;;;;4.90;2.20;;;;;;;;;;5057023;28;20061;-90
2023/12/27 13:28:19;;;;;;;1.67;1.58;;;;;;;;;;5057789;28;20386;-93
2023/12/27 13:30:46;;;;;;;2.22;2.00;;;;;;;;;;5043986;28;20052;-90
2023/12/27 13:33:14;;;;;;;3.03;1.80;;;;;;;;;;5043574;28;20519;-92
2023/12/27 13:35:41;;;;;;;3.05;1.73;;;;;;;;;;5061634;28;20056;-90
2023/12/27 13:38:11;;;;;;;4.78;3.08;;;;;;;;;;5064080;28;20555;-91
2023/12/27 13:40:38;;;;;;;3.20;1.90;;;;;;;;;;5049402;28;20049;-90
2023/12/27 13:43:06;;;;;;;3.70;1.70;;;;;;;;;;5031631;28;20048;-91
2023/12/27 13:45:33;;;;;;;4.20;2.00;;;;;;;;;;5040784;28;20478;-91
2023/12/27 13:48:01;;;;;;;4.07;1.60;;;;;;;;;;5056780;28;20049;-91
2023/12/27 13:50:29;;;;;;;2.80;2.10;;;;;;;;;;5059828;28;20123;-91
2023/12/27 13:52:56;;;;;;;4.63;1.90;;;;;;;;;;5043525;28;20049;-91
2023/12/27 13:55:24;;;;;;;3.10;1.65;;;;;;;;;;5041906;28;20477;-91
2023/12/27 13:57:51;;;;;;;6.40;2.00;;;;;;;;;;5056517;28;20041;-91
2023/12/27 14:00:22;;;;;;;3.15;2.20;;;;;;;;;;5066597;28;20383;-91
2023/12/27 14:02:49;;;;;;;4.50;1.98;;;;;;;;;;5057300;28;20049;-92
2023/12/27 14:05:17;;;;;;;6.13;1.83;;;;;;;;;;5030597;28;20119;-91
2023/12/27 14:07:48;;;;;;;2.20;1.55;;;;;;;;;;5042158;28;20046;-91
2023/12/27 14:10:16;;;;;;;2.85;2.22;;;;;;;;;;5044319;28;20045;-91
2023/12/27 14:12:43;;;;;;;4.90;2.10;;;;;;;;;;5046707;28;20045;-92
2023/12/27 14:15:12;;;;;;;3.63;1.90;;;;;;;;;;5047631;28;20516;-91
2023/12/27 14:17:40;;;;;;;3.15;1.65;;;;;;;;;;5059492;28;20060;-92
2023/12/27 14:20:12;;;;;;;2.10;1.63;;;;;;;;;;5060084;28;20049;-92
2023/12/27 14:22:41;;;;;;;3.17;2.10;;;;;;;;;;5035949;28;20124;-91
2023/12/27 14:25:10;;;;;;;4.43;1.90;;;;;;;;;;5059801;28;20095;-92
2023/12/27 14:27:42;;;;;;;7.30;1.77;;;;;;;;;;5063099;28;20131;-92
2023/12/27 14:30:10;;;;;;;2.38;1.88;;;;;;;;;;5038575;28;20057;-92
2023/12/27 14:32:38;;;;;;;4.47;3.00;;;;;;;;;;5027853;28;20123;-92
2023/12/27 14:35:06;;;;;;;2.83;1.60;;;;;;;;;;5043162;28;20480;-92
2023/12/27 14:37:33;;;;;;;4.43;1.40;;;;;;;;;;5059933;28;20072;-92